sensor_id;sensor_type;location;lat;lon;timestamp;P1;durP1;ratioP1;P2;durP2;ratioP2
70026;SDS011;57506;50.092;15.804;2022-07-23T00:00:08;17.48;;;11.07;;
70026;SDS011;57506;50.092;15.804;2022-07-23T00:02:35;17.75;;;10.70;;
70026;SDS011;57506;50.092;15.804;2022-07-23T00:05:01;15.13;;;10.00;;
70026;SDS011;57506;50.092;15.804;2022-07-23T00:07:27;19.13;;;10.00;;
70026;SDS011;57506;50.092;15.804;2022-07-23T00:09:52;18.05;;;10.18;;
70026;SDS011;57506;50.092;15.804;2022-07-23T00:12:18;15.97;;;10.07;;
70026;SDS011;57506;50.092;15.804;2022-07-23T00:14:44;18.33;;;10.02;;
70026;SDS011;57506;50.092;15.804;2022-07-23T00:17:09;18.47;;;11.60;;
70026;SDS011;57506;50.092;15.804;2022-07-23T00:19:35;21.52;;;11.40;;
70026;SDS011;57506;50.092;15.804;2022-07-23T00:22:00;16.77;;;10.03;;
70026;SDS011;57506;50.092;15.804;2022-07-23T00:24:26;16.07;;;9.93;;
70026;SDS011;57506;50.092;15.804;2022-07-23T00:26:52;21.13;;;11.20;;
70026;SDS011;57506;50.092;15.804;2022-07-23T00:29:17;19.00;;;12.20;;
70026;SDS011;57506;50.092;15.804;2022-07-23T00:31:43;20.02;;;11.73;;
70026;SDS011;57506;50.092;15.804;2022-07-23T00:34:08;18.37;;;12.30;;
70026;SDS011;57506;50.092;15.804;2022-07-23T00:36:34;17.92;;;10.32;;
70026;SDS011;57506;50.092;15.804;2022-07-23T00:39:00;17.47;;;10.40;;
70026;SDS011;57506;50.092;15.804;2022-07-23T00:41:25;15.37;;;9.93;;
70026;SDS011;57506;50.092;15.804;2022-07-23T00:43:51;15.07;;;10.05;;
70026;SDS011;57506;50.092;15.804;2022-07-23T00:46:20;13.60;;;9.47;;
70026;SDS011;57506;50.092;15.804;2022-07-23T00:48:46;15.70;;;9.40;;
70026;SDS011;57506;50.092;15.804;2022-07-23T00:51:11;13.53;;;9.77;;
70026;SDS011;57506;50.092;15.804;2022-07-23T00:53:37;15.77;;;10.23;;
70026;SDS011;57506;50.092;15.804;2022-07-23T00:56:02;20.03;;;11.70;;
70026;SDS011;57506;50.092;15.804;2022-07-23T00:58:28;19.13;;;11.70;;
70026;SDS011;57506;50.092;15.804;2022-07-23T01:00:54;13.30;;;9.88;;
70026;SDS011;57506;50.092;15.804;2022-07-23T01:03:19;12.70;;;9.37;;
70026;SDS011;57506;50.092;15.804;2022-07-23T01:05:45;12.75;;;9.00;;
70026;SDS011;57506;50.092;15.804;2022-07-23T01:08:11;13.23;;;9.40;;
70026;SDS011;57506;50.092;15.804;2022-07-23T01:10:37;13.70;;;9.10;;
70026;SDS011;57506;50.092;15.804;2022-07-23T01:13:04;16.27;;;10.27;;
70026;SDS011;57506;50.092;15.804;2022-07-23T01:15:33;16.83;;;11.90;;
70026;SDS011;57506;50.092;15.804;2022-07-23T01:18:00;19.75;;;11.38;;
70026;SDS011;57506;50.092;15.804;2022-07-23T01:20:26;15.45;;;10.57;;
70026;SDS011;57506;50.092;15.804;2022-07-23T01:22:52;13.13;;;10.27;;
70026;SDS011;57506;50.092;15.804;2022-07-23T01:25:18;19.90;;;11.18;;
70026;SDS011;57506;50.092;15.804;2022-07-23T01:27:44;14.25;;;10.52;;
70026;SDS011;57506;50.092;15.804;2022-07-23T01:30:10;14.63;;;10.57;;
70026;SDS011;57506;50.092;15.804;2022-07-23T01:32:36;15.20;;;10.48;;
70026;SDS011;57506;50.092;15.804;2022-07-23T01:35:02;19.13;;;9.93;;
70026;SDS011;57506;50.092;15.804;2022-07-23T01:37:28;16.38;;;10.35;;
70026;SDS011;57506;50.092;15.804;2022-07-23T01:39:53;17.65;;;11.50;;
70026;SDS011;57506;50.092;15.804;2022-07-23T01:42:19;18.90;;;11.83;;
70026;SDS011;57506;50.092;15.804;2022-07-23T01:44:44;17.03;;;11.13;;
70026;SDS011;57506;50.092;15.804;2022-07-23T01:47:10;16.95;;;11.18;;
70026;SDS011;57506;50.092;15.804;2022-07-23T01:49:35;15.53;;;11.07;;
70026;SDS011;57506;50.092;15.804;2022-07-23T01:52:02;16.92;;;11.48;;
70026;SDS011;57506;50.092;15.804;2022-07-23T01:54:31;15.10;;;10.32;;
70026;SDS011;57506;50.092;15.804;2022-07-23T01:56:58;17.70;;;13.00;;
70026;SDS011;57506;50.092;15.804;2022-07-23T01:59:25;18.45;;;12.88;;
70026;SDS011;57506;50.092;15.804;2022-07-23T02:01:52;19.15;;;12.35;;
70026;SDS011;57506;50.092;15.804;2022-07-23T02:04:18;20.83;;;13.63;;
70026;SDS011;57506;50.092;15.804;2022-07-23T02:06:45;18.83;;;13.50;;
70026;SDS011;57506;50.092;15.804;2022-07-23T02:09:11;14.97;;;12.17;;
70026;SDS011;57506;50.092;15.804;2022-07-23T02:11:37;18.48;;;13.05;;
70026;SDS011;57506;50.092;15.804;2022-07-23T02:14:03;17.15;;;12.85;;
70026;SDS011;57506;50.092;15.804;2022-07-23T02:16:28;19.40;;;12.73;;
70026;SDS011;57506;50.092;15.804;2022-07-23T02:18:54;15.80;;;12.90;;
70026;SDS011;57506;50.092;15.804;2022-07-23T02:21:19;19.50;;;12.50;;
70026;SDS011;57506;50.092;15.804;2022-07-23T02:23:45;14.57;;;12.00;;
70026;SDS011;57506;50.092;15.804;2022-07-23T02:26:11;14.87;;;11.83;;
70026;SDS011;57506;50.092;15.804;2022-07-23T02:28:36;17.53;;;12.30;;
70026;SDS011;57506;50.092;15.804;2022-07-23T02:31:02;15.05;;;11.70;;
70026;SDS011;57506;50.092;15.804;2022-07-23T02:33:28;21.85;;;11.68;;
70026;SDS011;57506;50.092;15.804;2022-07-23T02:35:54;17.03;;;12.30;;
70026;SDS011;57506;50.092;15.804;2022-07-23T02:38:19;17.48;;;13.38;;
70026;SDS011;57506;50.092;15.804;2022-07-23T02:40:45;18.40;;;12.57;;
70026;SDS011;57506;50.092;15.804;2022-07-23T02:43:10;14.30;;;11.43;;
70026;SDS011;57506;50.092;15.804;2022-07-23T02:45:36;14.65;;;12.18;;
70026;SDS011;57506;50.092;15.804;2022-07-23T02:48:02;14.80;;;11.53;;
70026;SDS011;57506;50.092;15.804;2022-07-23T02:50:28;17.33;;;10.93;;
70026;SDS011;57506;50.092;15.804;2022-07-23T02:52:53;14.80;;;10.43;;
70026;SDS011;57506;50.092;15.804;2022-07-23T02:55:19;15.18;;;12.02;;
70026;SDS011;57506;50.092;15.804;2022-07-23T02:57:44;14.10;;;10.90;;
70026;SDS011;57506;50.092;15.804;2022-07-23T03:00:10;20.17;;;12.50;;
70026;SDS011;57506;50.092;15.804;2022-07-23T03:02:36;16.48;;;11.88;;
70026;SDS011;57506;50.092;15.804;2022-07-23T03:05:01;16.47;;;12.13;;
70026;SDS011;57506;50.092;15.804;2022-07-23T03:07:27;17.47;;;11.70;;
70026;SDS011;57506;50.092;15.804;2022-07-23T03:09:53;17.60;;;12.13;;
70026;SDS011;57506;50.092;15.804;2022-07-23T03:12:18;17.17;;;12.40;;
70026;SDS011;57506;50.092;15.804;2022-07-23T03:14:44;17.83;;;13.43;;
70026;SDS011;57506;50.092;15.804;2022-07-23T03:17:09;17.08;;;12.25;;
70026;SDS011;57506;50.092;15.804;2022-07-23T03:19:35;18.20;;;12.47;;
70026;SDS011;57506;50.092;15.804;2022-07-23T03:22:02;17.75;;;11.80;;
70026;SDS011;57506;50.092;15.804;2022-07-23T03:24:28;15.53;;;11.43;;
70026;SDS011;57506;50.092;15.804;2022-07-23T03:27:13;15.27;;;11.20;;
70026;SDS011;57506;50.092;15.804;2022-07-23T03:29:39;19.38;;;11.68;;
70026;SDS011;57506;50.092;15.804;2022-07-23T03:32:05;13.40;;;10.60;;
70026;SDS011;57506;50.092;15.804;2022-07-23T03:34:31;16.40;;;11.48;;
70026;SDS011;57506;50.092;15.804;2022-07-23T03:36:56;13.03;;;10.50;;
70026;SDS011;57506;50.092;15.804;2022-07-23T03:39:22;13.87;;;10.73;;
70026;SDS011;57506;50.092;15.804;2022-07-23T03:41:48;16.20;;;11.27;;
70026;SDS011;57506;50.092;15.804;2022-07-23T03:44:13;17.20;;;12.10;;
70026;SDS011;57506;50.092;15.804;2022-07-23T03:46:39;16.27;;;13.17;;
70026;SDS011;57506;50.092;15.804;2022-07-23T03:49:04;15.40;;;11.65;;
70026;SDS011;57506;50.092;15.804;2022-07-23T03:51:30;11.77;;;10.13;;
70026;SDS011;57506;50.092;15.804;2022-07-23T03:53:55;15.73;;;11.23;;
70026;SDS011;57506;50.092;15.804;2022-07-23T03:56:21;13.32;;;10.90;;
70026;SDS011;57506;50.092;15.804;2022-07-23T03:58:47;16.20;;;11.90;;
70026;SDS011;57506;50.092;15.804;2022-07-23T04:01:12;14.85;;;11.55;;
70026;SDS011;57506;50.092;15.804;2022-07-23T04:03:38;16.13;;;11.80;;
70026;SDS011;57506;50.092;15.804;2022-07-23T04:06:04;13.68;;;10.80;;
70026;SDS011;57506;50.092;15.804;2022-07-23T04:08:31;16.40;;;11.02;;
70026;SDS011;57506;50.092;15.804;2022-07-23T04:10:56;15.17;;;11.73;;
70026;SDS011;57506;50.092;15.804;2022-07-23T04:13:22;14.07;;;10.93;;
70026;SDS011;57506;50.092;15.804;2022-07-23T04:15:47;12.73;;;10.30;;
70026;SDS011;57506;50.092;15.804;2022-07-23T04:18:13;17.88;;;12.10;;
70026;SDS011;57506;50.092;15.804;2022-07-23T04:20:39;19.33;;;11.87;;
70026;SDS011;57506;50.092;15.804;2022-07-23T04:23:04;13.97;;;12.03;;
70026;SDS011;57506;50.092;15.804;2022-07-23T04:25:30;15.40;;;12.25;;
70026;SDS011;57506;50.092;15.804;2022-07-23T04:27:55;14.73;;;11.83;;
70026;SDS011;57506;50.092;15.804;2022-07-23T04:30:21;16.77;;;12.38;;
70026;SDS011;57506;50.092;15.804;2022-07-23T04:32:46;16.33;;;12.20;;
70026;SDS011;57506;50.092;15.804;2022-07-23T04:35:12;14.00;;;11.47;;
70026;SDS011;57506;50.092;15.804;2022-07-23T04:37:37;19.30;;;12.77;;
70026;SDS011;57506;50.092;15.804;2022-07-23T04:40:03;15.97;;;11.93;;
70026;SDS011;57506;50.092;15.804;2022-07-23T04:42:29;18.35;;;12.75;;
70026;SDS011;57506;50.092;15.804;2022-07-23T04:44:55;19.40;;;13.43;;
70026;SDS011;57506;50.092;15.804;2022-07-23T04:47:20;16.98;;;12.80;;
70026;SDS011;57506;50.092;15.804;2022-07-23T04:49:47;21.15;;;11.68;;
70026;SDS011;57506;50.092;15.804;2022-07-23T04:52:12;17.40;;;11.37;;
70026;SDS011;57506;50.092;15.804;2022-07-23T04:54:38;16.23;;;11.47;;
70026;SDS011;57506;50.092;15.804;2022-07-23T04:57:03;15.05;;;11.45;;
70026;SDS011;57506;50.092;15.804;2022-07-23T04:59:29;18.57;;;11.80;;
70026;SDS011;57506;50.092;15.804;2022-07-23T05:01:54;14.53;;;10.80;;
70026;SDS011;57506;50.092;15.804;2022-07-23T05:04:20;17.42;;;11.15;;
70026;SDS011;57506;50.092;15.804;2022-07-23T05:06:45;15.53;;;10.70;;
70026;SDS011;57506;50.092;15.804;2022-07-23T05:09:11;14.75;;;11.15;;
70026;SDS011;57506;50.092;15.804;2022-07-23T05:11:37;14.97;;;11.00;;
70026;SDS011;57506;50.092;15.804;2022-07-23T05:14:02;19.73;;;10.77;;
70026;SDS011;57506;50.092;15.804;2022-07-23T05:16:28;13.50;;;10.23;;
70026;SDS011;57506;50.092;15.804;2022-07-23T05:18:53;13.90;;;10.67;;
70026;SDS011;57506;50.092;15.804;2022-07-23T05:21:19;16.23;;;10.07;;
70026;SDS011;57506;50.092;15.804;2022-07-23T05:23:44;14.43;;;11.02;;
70026;SDS011;57506;50.092;15.804;2022-07-23T05:26:10;15.17;;;10.33;;
70026;SDS011;57506;50.092;15.804;2022-07-23T05:28:35;14.13;;;10.55;;
70026;SDS011;57506;50.092;15.804;2022-07-23T05:31:01;18.63;;;10.70;;
70026;SDS011;57506;50.092;15.804;2022-07-23T05:33:26;15.67;;;9.83;;
70026;SDS011;57506;50.092;15.804;2022-07-23T05:35:52;15.85;;;9.93;;
70026;SDS011;57506;50.092;15.804;2022-07-23T05:38:17;22.70;;;9.10;;
70026;SDS011;57506;50.092;15.804;2022-07-23T05:40:43;17.40;;;10.10;;
70026;SDS011;57506;50.092;15.804;2022-07-23T05:43:08;15.30;;;9.15;;
70026;SDS011;57506;50.092;15.804;2022-07-23T05:45:34;16.37;;;9.47;;
70026;SDS011;57506;50.092;15.804;2022-07-23T05:47:59;18.43;;;9.80;;
70026;SDS011;57506;50.092;15.804;2022-07-23T05:50:25;17.40;;;10.43;;
70026;SDS011;57506;50.092;15.804;2022-07-23T05:52:50;13.82;;;10.05;;
70026;SDS011;57506;50.092;15.804;2022-07-23T05:55:16;13.60;;;9.67;;
70026;SDS011;57506;50.092;15.804;2022-07-23T05:57:41;14.13;;;9.77;;
70026;SDS011;57506;50.092;15.804;2022-07-23T06:00:08;13.80;;;10.33;;
70026;SDS011;57506;50.092;15.804;2022-07-23T06:02:35;16.20;;;9.63;;
70026;SDS011;57506;50.092;15.804;2022-07-23T06:05:02;13.57;;;10.00;;
70026;SDS011;57506;50.092;15.804;2022-07-23T06:07:28;12.60;;;9.73;;
70026;SDS011;57506;50.092;15.804;2022-07-23T06:09:53;15.10;;;10.10;;
70026;SDS011;57506;50.092;15.804;2022-07-23T06:12:19;12.47;;;9.30;;
70026;SDS011;57506;50.092;15.804;2022-07-23T06:14:44;12.47;;;9.77;;
70026;SDS011;57506;50.092;15.804;2022-07-23T06:17:10;15.10;;;9.67;;
70026;SDS011;57506;50.092;15.804;2022-07-23T06:19:36;15.30;;;9.45;;
70026;SDS011;57506;50.092;15.804;2022-07-23T06:22:01;14.80;;;10.37;;
70026;SDS011;57506;50.092;15.804;2022-07-23T06:24:27;13.15;;;9.13;;
70026;SDS011;57506;50.092;15.804;2022-07-23T06:26:53;12.47;;;9.83;;
70026;SDS011;57506;50.092;15.804;2022-07-23T06:29:18;19.33;;;10.60;;
70026;SDS011;57506;50.092;15.804;2022-07-23T06:31:44;14.20;;;10.40;;
70026;SDS011;57506;50.092;15.804;2022-07-23T06:34:09;16.50;;;10.93;;
70026;SDS011;57506;50.092;15.804;2022-07-23T06:36:35;13.70;;;10.67;;
70026;SDS011;57506;50.092;15.804;2022-07-23T06:39:01;14.68;;;10.63;;
70026;SDS011;57506;50.092;15.804;2022-07-23T06:41:27;14.37;;;11.67;;
70026;SDS011;57506;50.092;15.804;2022-07-23T06:43:52;14.80;;;10.25;;
70026;SDS011;57506;50.092;15.804;2022-07-23T06:46:18;14.23;;;11.27;;
70026;SDS011;57506;50.092;15.804;2022-07-23T06:48:44;14.85;;;10.88;;
70026;SDS011;57506;50.092;15.804;2022-07-23T06:51:09;14.10;;;10.47;;
70026;SDS011;57506;50.092;15.804;2022-07-23T06:53:35;14.73;;;10.77;;
70026;SDS011;57506;50.092;15.804;2022-07-23T06:56:01;13.50;;;10.43;;
70026;SDS011;57506;50.092;15.804;2022-07-23T06:58:26;15.27;;;10.48;;
70026;SDS011;57506;50.092;15.804;2022-07-23T07:00:52;13.33;;;11.17;;
70026;SDS011;57506;50.092;15.804;2022-07-23T07:03:18;13.83;;;10.27;;
70026;SDS011;57506;50.092;15.804;2022-07-23T07:05:44;12.93;;;10.63;;
70026;SDS011;57506;50.092;15.804;2022-07-23T07:08:10;16.20;;;10.32;;
70026;SDS011;57506;50.092;15.804;2022-07-23T07:10:36;13.50;;;9.38;;
70026;SDS011;57506;50.092;15.804;2022-07-23T07:13:02;12.20;;;10.40;;
70026;SDS011;57506;50.092;15.804;2022-07-23T07:15:27;12.48;;;10.32;;
70026;SDS011;57506;50.092;15.804;2022-07-23T07:17:53;15.00;;;10.43;;
70026;SDS011;57506;50.092;15.804;2022-07-23T07:20:20;14.30;;;10.13;;
70026;SDS011;57506;50.092;15.804;2022-07-23T07:22:46;12.53;;;9.03;;
70026;SDS011;57506;50.092;15.804;2022-07-23T07:25:11;14.40;;;10.10;;
70026;SDS011;57506;50.092;15.804;2022-07-23T07:27:37;16.57;;;10.20;;
70026;SDS011;57506;50.092;15.804;2022-07-23T07:30:03;18.17;;;10.50;;
70026;SDS011;57506;50.092;15.804;2022-07-23T07:32:30;15.30;;;9.93;;
70026;SDS011;57506;50.092;15.804;2022-07-23T07:34:57;12.70;;;9.50;;
70026;SDS011;57506;50.092;15.804;2022-07-23T07:37:23;15.50;;;10.00;;
70026;SDS011;57506;50.092;15.804;2022-07-23T07:39:49;15.32;;;10.13;;
70026;SDS011;57506;50.092;15.804;2022-07-23T07:42:14;14.87;;;9.33;;
70026;SDS011;57506;50.092;15.804;2022-07-23T07:44:40;14.90;;;9.60;;
70026;SDS011;57506;50.092;15.804;2022-07-23T07:47:06;12.83;;;9.37;;
70026;SDS011;57506;50.092;15.804;2022-07-23T07:49:32;14.95;;;10.10;;
70026;SDS011;57506;50.092;15.804;2022-07-23T07:51:58;15.47;;;10.20;;
70026;SDS011;57506;50.092;15.804;2022-07-23T07:54:24;13.27;;;9.10;;
70026;SDS011;57506;50.092;15.804;2022-07-23T07:56:49;16.97;;;8.83;;
70026;SDS011;57506;50.092;15.804;2022-07-23T07:59:15;13.65;;;9.48;;
70026;SDS011;57506;50.092;15.804;2022-07-23T08:01:41;10.87;;;8.67;;
70026;SDS011;57506;50.092;15.804;2022-07-23T08:04:07;13.50;;;9.93;;
70026;SDS011;57506;50.092;15.804;2022-07-23T08:06:32;14.57;;;9.75;;
70026;SDS011;57506;50.092;15.804;2022-07-23T08:08:58;11.47;;;9.47;;
70026;SDS011;57506;50.092;15.804;2022-07-23T08:11:24;11.70;;;8.35;;
70026;SDS011;57506;50.092;15.804;2022-07-23T08:13:51;13.90;;;8.40;;
70026;SDS011;57506;50.092;15.804;2022-07-23T08:16:16;12.38;;;9.27;;
70026;SDS011;57506;50.092;15.804;2022-07-23T08:18:42;13.77;;;9.15;;
70026;SDS011;57506;50.092;15.804;2022-07-23T08:21:08;13.47;;;8.70;;
70026;SDS011;57506;50.092;15.804;2022-07-23T08:23:34;12.82;;;8.95;;
70026;SDS011;57506;50.092;15.804;2022-07-23T08:25:59;15.23;;;9.00;;
70026;SDS011;57506;50.092;15.804;2022-07-23T08:28:26;13.27;;;8.73;;
70026;SDS011;57506;50.092;15.804;2022-07-23T08:30:52;14.65;;;8.70;;
70026;SDS011;57506;50.092;15.804;2022-07-23T08:33:18;11.27;;;9.30;;
70026;SDS011;57506;50.092;15.804;2022-07-23T08:35:48;15.82;;;9.15;;
70026;SDS011;57506;50.092;15.804;2022-07-23T08:38:15;11.85;;;8.57;;
70026;SDS011;57506;50.092;15.804;2022-07-23T08:40:46;15.55;;;9.45;;
70026;SDS011;57506;50.092;15.804;2022-07-23T08:43:20;11.33;;;8.30;;
70026;SDS011;57506;50.092;15.804;2022-07-23T08:45:48;13.38;;;8.30;;
70026;SDS011;57506;50.092;15.804;2022-07-23T08:48:16;10.85;;;8.25;;
70026;SDS011;57506;50.092;15.804;2022-07-23T08:50:44;9.77;;;7.78;;
70026;SDS011;57506;50.092;15.804;2022-07-23T08:53:13;14.80;;;8.50;;
70026;SDS011;57506;50.092;15.804;2022-07-23T08:55:39;12.67;;;8.23;;
70026;SDS011;57506;50.092;15.804;2022-07-23T08:58:08;10.38;;;7.97;;
70026;SDS011;57506;50.092;15.804;2022-07-23T09:00:33;10.45;;;8.27;;
70026;SDS011;57506;50.092;15.804;2022-07-23T09:02:59;12.17;;;8.37;;
70026;SDS011;57506;50.092;15.804;2022-07-23T09:05:25;16.42;;;8.65;;
70026;SDS011;57506;50.092;15.804;2022-07-23T09:10:46;10.10;;;8.10;;
70026;SDS011;57506;50.092;15.804;2022-07-23T09:16:11;14.13;;;8.40;;
70026;SDS011;57506;50.092;15.804;2022-07-23T09:18:48;12.00;;;8.45;;
70026;SDS011;57506;50.092;15.804;2022-07-23T09:21:18;11.98;;;8.55;;
70026;SDS011;57506;50.092;15.804;2022-07-23T09:24:08;12.87;;;8.80;;
70026;SDS011;57506;50.092;15.804;2022-07-23T09:26:36;10.38;;;8.30;;
70026;SDS011;57506;50.092;15.804;2022-07-23T09:29:13;13.88;;;8.77;;
70026;SDS011;57506;50.092;15.804;2022-07-23T09:31:48;12.25;;;8.60;;
70026;SDS011;57506;50.092;15.804;2022-07-23T09:34:23;12.23;;;8.02;;
70026;SDS011;57506;50.092;15.804;2022-07-23T09:36:58;14.20;;;8.70;;
70026;SDS011;57506;50.092;15.804;2022-07-23T09:39:34;11.52;;;8.23;;
70026;SDS011;57506;50.092;15.804;2022-07-23T09:44:50;10.45;;;8.20;;
70026;SDS011;57506;50.092;15.804;2022-07-23T09:47:17;10.98;;;8.40;;
70026;SDS011;57506;50.092;15.804;2022-07-23T09:52:45;11.82;;;8.52;;
70026;SDS011;57506;50.092;15.804;2022-07-23T09:55:14;12.98;;;8.05;;
70026;SDS011;57506;50.092;15.804;2022-07-23T09:57:41;11.52;;;8.88;;
70026;SDS011;57506;50.092;15.804;2022-07-23T10:00:09;11.90;;;8.57;;
70026;SDS011;57506;50.092;15.804;2022-07-23T10:02:36;12.77;;;8.23;;
70026;SDS011;57506;50.092;15.804;2022-07-23T10:05:02;15.40;;;8.02;;
70026;SDS011;57506;50.092;15.804;2022-07-23T10:07:31;12.95;;;8.65;;
70026;SDS011;57506;50.092;15.804;2022-07-23T10:09:59;12.30;;;8.88;;
70026;SDS011;57506;50.092;15.804;2022-07-23T10:12:25;12.60;;;9.40;;
70026;SDS011;57506;50.092;15.804;2022-07-23T10:14:54;13.60;;;8.30;;
70026;SDS011;57506;50.092;15.804;2022-07-23T10:17:22;11.00;;;9.23;;
70026;SDS011;57506;50.092;15.804;2022-07-23T10:19:47;12.30;;;9.30;;
70026;SDS011;57506;50.092;15.804;2022-07-23T10:22:23;13.00;;;8.87;;
70026;SDS011;57506;50.092;15.804;2022-07-23T10:27:47;18.35;;;11.93;;
70026;SDS011;57506;50.092;15.804;2022-07-23T10:30:30;14.73;;;11.13;;
70026;SDS011;57506;50.092;15.804;2022-07-23T10:36:56;13.77;;;9.17;;
70026;SDS011;57506;50.092;15.804;2022-07-23T10:39:22;14.07;;;8.43;;
70026;SDS011;57506;50.092;15.804;2022-07-23T10:41:51;16.70;;;8.38;;
70026;SDS011;57506;50.092;15.804;2022-07-23T10:44:18;12.32;;;8.90;;
70026;SDS011;57506;50.092;15.804;2022-07-23T10:49:28;11.83;;;9.17;;
70026;SDS011;57506;50.092;15.804;2022-07-23T10:54:39;15.65;;;8.93;;
70026;SDS011;57506;50.092;15.804;2022-07-23T10:57:06;12.57;;;8.45;;
70026;SDS011;57506;50.092;15.804;2022-07-23T11:02:46;14.07;;;9.07;;
70026;SDS011;57506;50.092;15.804;2022-07-23T11:05:17;11.52;;;8.27;;
70026;SDS011;57506;50.092;15.804;2022-07-23T11:10:38;13.73;;;8.95;;
70026;SDS011;57506;50.092;15.804;2022-07-23T11:36:57;14.80;;;6.93;;
70026;SDS011;57506;50.092;15.804;2022-07-23T11:39:24;10.13;;;6.30;;
70026;SDS011;57506;50.092;15.804;2022-07-23T11:41:52;10.57;;;6.43;;
70026;SDS011;57506;50.092;15.804;2022-07-23T11:44:27;8.73;;;6.18;;
70026;SDS011;57506;50.092;15.804;2022-07-23T11:46:58;9.40;;;6.53;;
70026;SDS011;57506;50.092;15.804;2022-07-23T11:49:25;8.82;;;5.82;;
70026;SDS011;57506;50.092;15.804;2022-07-23T11:52:08;9.73;;;6.03;;
70026;SDS011;57506;50.092;15.804;2022-07-23T11:54:36;8.27;;;5.50;;
70026;SDS011;57506;50.092;15.804;2022-07-23T11:57:11;14.85;;;5.25;;
70026;SDS011;57506;50.092;15.804;2022-07-23T11:59:37;9.73;;;5.30;;
70026;SDS011;57506;50.092;15.804;2022-07-23T12:02:04;9.18;;;5.05;;
70026;SDS011;57506;50.092;15.804;2022-07-23T12:04:41;8.93;;;5.50;;
70026;SDS011;57506;50.092;15.804;2022-07-23T12:10:10;11.45;;;5.97;;
70026;SDS011;57506;50.092;15.804;2022-07-23T12:12:41;10.65;;;5.68;;
70026;SDS011;57506;50.092;15.804;2022-07-23T12:15:10;9.88;;;6.38;;
70026;SDS011;57506;50.092;15.804;2022-07-23T12:17:38;7.23;;;5.43;;
70026;SDS011;57506;50.092;15.804;2022-07-23T12:20:05;8.88;;;5.70;;
70026;SDS011;57506;50.092;15.804;2022-07-23T12:23:19;10.98;;;5.90;;
70026;SDS011;57506;50.092;15.804;2022-07-23T12:25:24;9.98;;;5.63;;
70026;SDS011;57506;50.092;15.804;2022-07-23T12:28:02;8.05;;;5.65;;
70026;SDS011;57506;50.092;15.804;2022-07-23T12:33:24;11.88;;;6.28;;
70026;SDS011;57506;50.092;15.804;2022-07-23T12:35:52;10.68;;;6.90;;
70026;SDS011;57506;50.092;15.804;2022-07-23T12:38:21;9.68;;;6.20;;
70026;SDS011;57506;50.092;15.804;2022-07-23T12:40:49;10.13;;;7.60;;
70026;SDS011;57506;50.092;15.804;2022-07-23T12:45:53;10.85;;;6.80;;
70026;SDS011;57506;50.092;15.804;2022-07-23T12:50:54;13.43;;;7.13;;
70026;SDS011;57506;50.092;15.804;2022-07-23T12:55:47;12.00;;;6.60;;
70026;SDS011;57506;50.092;15.804;2022-07-23T12:58:18;11.55;;;6.47;;
70026;SDS011;57506;50.092;15.804;2022-07-23T13:01:02;12.55;;;6.53;;
70026;SDS011;57506;50.092;15.804;2022-07-23T13:03:37;10.18;;;7.00;;
70026;SDS011;57506;50.092;15.804;2022-07-23T13:06:07;9.55;;;7.25;;
70026;SDS011;57506;50.092;15.804;2022-07-23T13:08:35;13.53;;;6.90;;
70026;SDS011;57506;50.092;15.804;2022-07-23T13:11:03;9.65;;;7.07;;
70026;SDS011;57506;50.092;15.804;2022-07-23T13:13:30;10.90;;;6.65;;
70026;SDS011;57506;50.092;15.804;2022-07-23T13:15:58;11.52;;;6.80;;
70026;SDS011;57506;50.092;15.804;2022-07-23T13:18:25;13.65;;;6.35;;
70026;SDS011;57506;50.092;15.804;2022-07-23T13:20:51;12.13;;;7.07;;
70026;SDS011;57506;50.092;15.804;2022-07-23T13:23:18;8.98;;;5.70;;
70026;SDS011;57506;50.092;15.804;2022-07-23T13:25:44;8.35;;;5.90;;
70026;SDS011;57506;50.092;15.804;2022-07-23T13:28:11;10.25;;;5.80;;
70026;SDS011;57506;50.092;15.804;2022-07-23T13:30:38;9.48;;;5.32;;
70026;SDS011;57506;50.092;15.804;2022-07-23T13:33:04;7.80;;;6.00;;
70026;SDS011;57506;50.092;15.804;2022-07-23T13:35:30;9.43;;;6.43;;
70026;SDS011;57506;50.092;15.804;2022-07-23T13:38:06;9.02;;;5.68;;
70026;SDS011;57506;50.092;15.804;2022-07-23T13:40:33;7.95;;;5.65;;
70026;SDS011;57506;50.092;15.804;2022-07-23T13:43:00;10.35;;;6.10;;
70026;SDS011;57506;50.092;15.804;2022-07-23T13:45:26;11.97;;;5.57;;
70026;SDS011;57506;50.092;15.804;2022-07-23T13:47:52;10.57;;;5.75;;
70026;SDS011;57506;50.092;15.804;2022-07-23T13:50:17;9.67;;;5.73;;
70026;SDS011;57506;50.092;15.804;2022-07-23T13:52:43;15.33;;;7.00;;
70026;SDS011;57506;50.092;15.804;2022-07-23T13:55:09;22.88;;;9.30;;
70026;SDS011;57506;50.092;15.804;2022-07-23T13:57:35;19.13;;;9.13;;
70026;SDS011;57506;50.092;15.804;2022-07-23T14:00:00;17.20;;;9.23;;
70026;SDS011;57506;50.092;15.804;2022-07-23T14:02:28;15.48;;;8.82;;
70026;SDS011;57506;50.092;15.804;2022-07-23T14:04:54;11.13;;;8.13;;
70026;SDS011;57506;50.092;15.804;2022-07-23T14:07:19;14.63;;;7.70;;
70026;SDS011;57506;50.092;15.804;2022-07-23T14:09:45;11.93;;;7.05;;
70026;SDS011;57506;50.092;15.804;2022-07-23T14:12:11;14.07;;;7.23;;
70026;SDS011;57506;50.092;15.804;2022-07-23T14:14:37;10.38;;;6.50;;
70026;SDS011;57506;50.092;15.804;2022-07-23T14:17:02;10.57;;;7.20;;
70026;SDS011;57506;50.092;15.804;2022-07-23T14:19:29;12.82;;;7.80;;
70026;SDS011;57506;50.092;15.804;2022-07-23T14:21:55;18.60;;;8.90;;
70026;SDS011;57506;50.092;15.804;2022-07-23T14:24:20;21.80;;;10.97;;
70026;SDS011;57506;50.092;15.804;2022-07-23T14:26:46;20.75;;;10.18;;
70026;SDS011;57506;50.092;15.804;2022-07-23T14:29:11;20.43;;;11.10;;
70026;SDS011;57506;50.092;15.804;2022-07-23T14:31:37;28.08;;;12.48;;
70026;SDS011;57506;50.092;15.804;2022-07-23T14:34:04;19.73;;;11.77;;
70026;SDS011;57506;50.092;15.804;2022-07-23T14:36:30;17.92;;;11.38;;
70026;SDS011;57506;50.092;15.804;2022-07-23T14:38:56;17.50;;;9.82;;
70026;SDS011;57506;50.092;15.804;2022-07-23T14:41:22;13.80;;;9.53;;
70026;SDS011;57506;50.092;15.804;2022-07-23T14:43:47;14.65;;;10.15;;
70026;SDS011;57506;50.092;15.804;2022-07-23T14:46:13;17.77;;;10.73;;
70026;SDS011;57506;50.092;15.804;2022-07-23T14:48:39;14.77;;;10.10;;
70026;SDS011;57506;50.092;15.804;2022-07-23T14:51:05;15.18;;;10.35;;
70026;SDS011;57506;50.092;15.804;2022-07-23T14:53:31;17.10;;;11.23;;
70026;SDS011;57506;50.092;15.804;2022-07-23T14:55:57;15.23;;;11.37;;
70026;SDS011;57506;50.092;15.804;2022-07-23T14:58:24;19.98;;;12.98;;
70026;SDS011;57506;50.092;15.804;2022-07-23T15:00:50;19.67;;;14.10;;
70026;SDS011;57506;50.092;15.804;2022-07-23T15:03:19;24.67;;;15.52;;
70026;SDS011;57506;50.092;15.804;2022-07-23T15:05:45;21.95;;;15.35;;
70026;SDS011;57506;50.092;15.804;2022-07-23T15:08:11;22.47;;;17.40;;
70026;SDS011;57506;50.092;15.804;2022-07-23T15:10:37;23.15;;;16.60;;
70026;SDS011;57506;50.092;15.804;2022-07-23T15:13:03;26.38;;;17.70;;
70026;SDS011;57506;50.092;15.804;2022-07-23T15:15:29;23.10;;;16.97;;
70026;SDS011;57506;50.092;15.804;2022-07-23T15:17:55;23.63;;;17.07;;
70026;SDS011;57506;50.092;15.804;2022-07-23T15:20:24;22.33;;;17.08;;